• Join FlightAware (Why Join?)
  • Login
  • US Flag 
07:08PM EST


 

Airport Tracker/Info


-or-


 

Live Flight TrackerFlight Track Log ✈ UAL4888 ✈ 19-Aug-2013 ✈ KORF - KEWR

Flight Track Log - Related Links

Times and Time Zones

All times are in EDT time to prevent confusion due to time zone crossing. See the UAL4888 flight status page for this flight to view local times or setup timezone preferences in your user account.

Time Position Orientation Groundspeed Altitude Reporting Facility
EDT Latitude Longitude Course Direction KTS MPH feet Rate Location/Type
08:47PM 36.8303 -76.2589 213° Southwest 244 281 3,500  Level Washington Center
08:48PM 36.8192 -76.3339 260° West 237 273 6,200 2,640 Climbing Washington Center
08:49PM 36.8647 -76.4019 310° West 196 226 8,900 2,460 Climbing Washington Center
08:50PM 37.0970 -76.6267 300° West  Level FlightAware Approximate
08:50PM 36.9122 -76.4725 310° West 219 252 11,300  Level Washington Center
08:51PM 37.1473 -76.7373 300° West  Level FlightAware Approximate
08:51PM 36.9575 -76.5406 310° West 245 282 13,200  Level Washington Center
08:52PM 37.0050 -76.6167 308° West 259 298 14,900 1,620 Climbing Washington Center
08:53PM 37.0522 -76.6900 309° West 270 311 16,500 1,380 Climbing Washington Center
08:54PM 37.1144 -76.7456 325° Northwest 270 311 17,800 1,200 Climbing Washington Center
08:55PM 37.1978 -76.7417 North 265 305 18,900 600 Climbing Washington Center
08:56PM 37.2875 -76.7353 North 287 330 19,000  Climbing Washington Center
08:57PM 37.3756 -76.7025 30° Northeast 356 410 19,000  Level Washington Center
08:58PM 37.3824 -76.6675 30° Northeast  Level Estimated
08:58PM 37.4758 -76.6700 14° North 356 410 19,000  Level Washington Center
08:59PM 37.5783 -76.6372 14° North 356 410 19,000  Level Washington Center
09:00PM 37.6767 -76.6072 14° North 356 410 19,000  Level Washington Center
09:01PM 37.7750 -76.5744 15° North 356 410 19,000  Level Washington Center
09:02PM 37.8753 -76.5414 15° North 356 410 19,000  Level Washington Center
09:03PM 37.9736 -76.5111 14° North 356 410 19,000 -540 Level Washington Center
09:04PM 38.0719 -76.4781 15° North 356 410 18,000 -900 Descending Washington Center
09:05PM 38.1722 -76.4447 15° North 356 410 17,200 -900 Descending Washington Center
09:06PM 38.2725 -76.4117 15° North 356 410 16,200 -1,080 Descending Washington Center
09:07PM 38.3708 -76.3836 13° North 356 410 15,100 -1,080 Descending Washington Center
09:08PM 38.4669 -76.3528 14° North 356 410 14,100 -960 Descending Washington Center
09:09PM 38.5589 -76.3217 15° North 351 404 13,200 -540 Descending Washington Center
09:10PM 38.6506 -76.2933 14° North 345 397 13,100 -120 Descending Washington Center
09:11PM 38.7425 -76.2650 14° North 338 389 13,000 -540 Descending Washington Center
09:12PM 38.8344 -76.2367 13° North 338 389 12,100 -1,020 Descending Washington Center
09:13PM 38.9222 -76.2106 13° North 338 389 11,000 -600 Descending Washington Center
09:14PM 39.0078 -76.1819 15° North 331 381 11,000 -60 Level Washington Center
09:15PM 39.0894 -76.1264 28° Northeast 326 375 10,900 -60 Descending Washington Center
09:16PM 39.1647 -76.0628 33° Northeast 321 369 10,900  Level Washington Center
09:17PM 39.2400 -75.9936 35° Northeast 321 369 10,900  Level Washington Center
09:18PM 39.3172 -75.9294 33° Northeast 327 376 10,900  Level Washington Center
09:20PM 39.4500 -75.7667 43° Northeast 340 391 11,000  Climbing Philadelphia TRACON
09:21PM 39.5000 -75.6667 57° Northeast 339 390 11,000  Level Philadelphia TRACON
09:22PM 39.5667 -75.5500 53° Northeast 338 389 11,000  Level Philadelphia TRACON
09:23PM 39.6167 -75.4500 57° Northeast 340 391 11,000  Level Philadelphia TRACON
09:24PM 39.6833 -75.3667 44° Northeast 339 390 11,000  Level Philadelphia TRACON
09:25PM 39.7333 -75.2667 57° Northeast 340 391 11,000 -180 Level Philadelphia TRACON
09:26PM 39.7833 -75.1667 57° Northeast 340 391 10,700 -540 Descending Philadelphia TRACON
09:27PM 39.8333 -75.0833 52° Northeast 334 384 10,000 -600 Descending Philadelphia TRACON
09:28PM 39.8833 -75.0000 52° Northeast 291 335 9,600 -840 Descending Philadelphia TRACON
09:30PM 39.9833 -74.8333 52° Northeast 280 322 7,700 -960 Descending New York TRACON
09:31PM 40.0333 -74.7500 52° Northeast 277 319 7,000 -420 Descending New York TRACON
09:32PM 40.0667 -74.7000 49° Northeast 272 313 7,000  Level New York TRACON
09:33PM 40.1167 -74.6167 52° Northeast 266 306 7,000  Level New York TRACON
09:34PM 40.1667 -74.5500 46° Northeast 269 310 7,000  Level New York TRACON
09:35PM 40.2167 -74.4833 46° Northeast 271 312 7,000  Level New York TRACON
09:36PM 40.2833 -74.4833 360° North 266 306 7,000 -300 Level New York TRACON
09:37PM 40.3667 -74.5000 351° North 264 304 6,400 -480 Descending New York TRACON
09:38PM 40.4333 -74.5167 349° North 251 289 6,000 -240 Descending New York TRACON
09:39PM 40.5000 -74.5167 360° North 252 290 6,000  Level New York TRACON
09:40PM 40.5833 -74.5333 351° North 251 289 6,000  Level New York TRACON
09:41PM 40.6333 -74.5333 360° North 251 289 6,000 -60 Level New York TRACON
09:42PM 40.7000 -74.5167 11° North 245 282 5,900 -480 Descending New York TRACON
09:43PM 40.7667 -74.4833 21° North 234 269 5,000 -480 Descending New York TRACON
09:44PM 40.8333 -74.4500 21° North 238 274 5,000  Level New York TRACON
09:45PM 40.8833 -74.4000 37° Northeast 246 283 5,000  Level New York TRACON
09:46PM 40.9167 -74.3167 62° Northeast 249 287 5,000  Level New York TRACON
09:47PM 40.9167 -74.2500 90° East 223 257 5,000  Level New York TRACON
09:48PM 40.9000 -74.1667 105° East 208 239 5,000 -660 Level New York TRACON
09:49PM 40.8833 -74.1000 108° East 200 230 3,700 -1,080 Descending New York TRACON
09:50PM 40.8500 -74.0667 143° Southeast 197 227 3,000 -840 Descending New York TRACON
09:51PM 40.8000 -74.1000 207° Southwest 185 213 2,100 -900 Descending New York TRACON
09:52PM 40.7500 -74.1333 207° Southwest 145 167 1,200 -780 Descending New York TRACON
09:53PM 40.7333 -74.1500 217° Southwest 110 127 600 -720 Descending New York TRACON